Time;durP1;ratioP1;P1;durP2;ratioP2;P2;SDS_P1;SDS_P2;PMS_P1;PMS_P2;Temp;Humidity;BMP_temperature;BMP_pressure;BME280_temperature;BME280_humidity;BME280_pressure;Samples;Min_cycle;Max_cycle;Signal;HPM_P1;HPM_P2
2021/07/29 00:00:07;;;;;;;2.63;1.52;;;;;;;;;;5080252;28;20037;-81
2021/07/29 00:02:33;;;;;;;1.77;1.67;;;;;;;;;;5081011;28;20058;-81
2021/07/29 00:04:59;;;;;;;1.95;1.75;;;;;;;;;;5079854;28;20021;-81
2021/07/29 00:07:25;;;;;;;2.17;1.95;;;;;;;;;;5081399;28;20116;-80
2021/07/29 00:09:51;;;;;;;2.65;1.88;;;;;;;;;;5089631;28;20028;-80
2021/07/29 00:12:17;;;;;;;1.67;1.58;;;;;;;;;;5099958;28;20051;-81
2021/07/29 00:14:50;;;;;;;3.60;1.90;;;;;;;;;;5094635;28;20124;-81
2021/07/29 00:20:00;;;;;;;2.22;2.03;;;;;;;;;;5081106;28;20035;-81
2021/07/29 00:22:26;;;;;;;1.58;1.48;;;;;;;;;;5080676;28;20021;-80
2021/07/29 00:24:52;;;;;;;2.40;1.60;;;;;;;;;;5079921;28;20036;-81
2021/07/29 00:27:18;;;;;;;1.50;1.40;;;;;;;;;;5090582;28;20024;-79
2021/07/29 00:29:44;;;;;;;2.25;1.45;;;;;;;;;;5085300;28;20063;-79
2021/07/29 00:32:10;;;;;;;3.08;1.88;;;;;;;;;;5081664;28;20043;-79
2021/07/29 00:34:37;;;;;;;2.83;1.85;;;;;;;;;;5080241;28;20111;-79
2021/07/29 00:37:03;;;;;;;5.38;1.95;;;;;;;;;;5082218;28;20084;-80
2021/07/29 00:39:29;;;;;;;1.50;1.40;;;;;;;;;;5096081;28;20087;-80
2021/07/29 00:41:55;;;;;;;1.75;1.65;;;;;;;;;;5105209;28;20024;-81
2021/07/29 00:44:21;;;;;;;2.05;1.75;;;;;;;;;;5091190;28;20048;-79
2021/07/29 00:46:47;;;;;;;1.45;1.35;;;;;;;;;;5085918;28;20080;-79
2021/07/29 00:49:14;;;;;;;1.48;1.38;;;;;;;;;;5096217;28;20028;-81
2021/07/29 00:51:40;;;;;;;1.98;1.88;;;;;;;;;;5109258;28;20028;-79
2021/07/29 00:54:06;;;;;;;1.60;1.50;;;;;;;;;;5110154;28;20032;-78
2021/07/29 00:56:33;;;;;;;1.77;1.67;;;;;;;;;;5103253;28;20017;-78
2021/07/29 00:58:59;;;;;;;1.92;1.83;;;;;;;;;;5101701;28;20039;-77
2021/07/29 01:01:25;;;;;;;2.13;1.92;;;;;;;;;;5104754;28;20084;-77
2021/07/29 01:03:51;;;;;;;3.03;2.33;;;;;;;;;;5101799;28;20035;-77
2021/07/29 01:06:18;;;;;;;2.55;2.33;;;;;;;;;;5101613;28;20052;-79
2021/07/29 01:09:01;;;;;;;5.57;2.95;;;;;;;;;;5100081;28;20040;-79
2021/07/29 01:11:27;;;;;;;2.47;2.28;;;;;;;;;;5099791;28;20054;-79
2021/07/29 01:13:53;;;;;;;2.35;2.17;;;;;;;;;;5102373;28;20050;-79
2021/07/29 01:16:19;;;;;;;1.95;1.85;;;;;;;;;;5101218;28;20433;-79
2021/07/29 01:18:46;;;;;;;2.63;2.17;;;;;;;;;;5091739;28;20036;-78
2021/07/29 01:21:12;;;;;;;2.55;2.22;;;;;;;;;;5081930;28;20035;-78
2021/07/29 01:23:38;;;;;;;1.70;1.60;;;;;;;;;;5084585;28;20025;-81
2021/07/29 01:26:04;;;;;;;1.90;1.80;;;;;;;;;;5087129;28;20021;-79
2021/07/29 01:28:30;;;;;;;1.70;1.60;;;;;;;;;;5093100;28;20417;-78
2021/07/29 01:30:56;;;;;;;1.92;1.83;;;;;;;;;;5086370;28;20024;-78
2021/07/29 01:33:22;;;;;;;1.65;1.55;;;;;;;;;;5082654;28;20024;-78
2021/07/29 01:35:48;;;;;;;2.45;1.50;;;;;;;;;;5080095;28;20021;-80
2021/07/29 01:38:14;;;;;;;1.60;1.50;;;;;;;;;;5086777;28;20264;-80
2021/07/29 01:40:40;;;;;;;1.77;1.67;;;;;;;;;;5097923;28;20054;-79
2021/07/29 01:43:06;;;;;;;1.58;1.40;;;;;;;;;;5084421;28;20103;-81
2021/07/29 01:45:32;;;;;;;2.13;1.65;;;;;;;;;;5084367;28;20016;-79
2021/07/29 01:47:58;;;;;;;1.60;1.50;;;;;;;;;;5088864;28;20024;-78
2021/07/29 01:50:24;;;;;;;1.52;1.42;;;;;;;;;;5081759;28;20038;-78
2021/07/29 01:52:50;;;;;;;1.75;1.65;;;;;;;;;;5080835;28;20044;-78
2021/07/29 01:55:16;;;;;;;2.15;1.90;;;;;;;;;;5081164;28;20025;-79
2021/07/29 01:57:44;;;;;;;1.73;1.63;;;;;;;;;;5088608;28;20043;-79
2021/07/29 02:00:10;;;;;;;2.45;1.80;;;;;;;;;;5078803;28;20032;-80
2021/07/29 02:02:36;;;;;;;1.95;1.73;;;;;;;;;;5082373;28;20039;-79
2021/07/29 02:05:03;;;;;;;1.88;1.77;;;;;;;;;;5099274;28;20039;-80
2021/07/29 02:07:29;;;;;;;1.83;1.73;;;;;;;;;;5095783;28;20024;-79
2021/07/29 02:09:55;;;;;;;1.33;1.25;;;;;;;;;;5091769;28;20043;-79
2021/07/29 02:12:21;;;;;;;1.48;1.38;;;;;;;;;;5098233;28;20085;-80
2021/07/29 02:14:47;;;;;;;1.85;1.67;;;;;;;;;;5082406;28;20033;-79
2021/07/29 02:17:13;;;;;;;2.38;1.75;;;;;;;;;;5078694;28;20028;-78
2021/07/29 02:19:39;;;;;;;1.67;1.58;;;;;;;;;;5077988;28;20097;-79
2021/07/29 02:22:05;;;;;;;1.30;1.20;;;;;;;;;;5083380;28;20031;-79
2021/07/29 02:24:31;;;;;;;1.60;1.50;;;;;;;;;;5084702;28;20028;-79
2021/07/29 02:26:57;;;;;;;2.08;1.58;;;;;;;;;;5089378;28;20088;-79
2021/07/29 02:29:23;;;;;;;1.52;1.42;;;;;;;;;;5084995;28;20021;-79
2021/07/29 02:31:49;;;;;;;1.50;1.40;;;;;;;;;;5083335;28;20405;-78
2021/07/29 02:34:15;;;;;;;1.52;1.42;;;;;;;;;;5091284;28;20028;-78
2021/07/29 02:36:41;;;;;;;2.05;1.80;;;;;;;;;;5104389;28;20058;-77
2021/07/29 02:39:07;;;;;;;1.80;1.70;;;;;;;;;;5103214;28;20054;-79
2021/07/29 02:41:35;;;;;;;3.00;1.67;;;;;;;;;;5103190;28;20024;-78
2021/07/29 02:44:01;;;;;;;1.73;1.63;;;;;;;;;;5103849;28;20023;-79
2021/07/29 02:46:28;;;;;;;1.27;1.20;;;;;;;;;;5101000;28;20441;-79
2021/07/29 02:48:54;;;;;;;2.63;1.48;;;;;;;;;;5103516;28;20013;-80
2021/07/29 02:51:20;;;;;;;1.50;1.40;;;;;;;;;;5103563;28;20333;-80
2021/07/29 02:53:46;;;;;;;1.75;1.63;;;;;;;;;;5103246;28;20421;-80
2021/07/29 02:56:12;;;;;;;2.03;1.85;;;;;;;;;;5100006;28;20028;-80
2021/07/29 02:58:38;;;;;;;2.17;1.77;;;;;;;;;;5089505;28;20046;-77
2021/07/29 03:01:05;;;;;;;2.38;2.10;;;;;;;;;;5082803;28;20459;-80
2021/07/29 03:03:31;;;;;;;2.40;2.00;;;;;;;;;;5084884;28;20021;-78
2021/07/29 03:05:57;;;;;;;2.13;1.92;;;;;;;;;;5083441;28;20035;-80
2021/07/29 03:08:23;;;;;;;1.50;1.30;;;;;;;;;;5082805;28;20028;-80
2021/07/29 03:10:49;;;;;;;2.25;1.67;;;;;;;;;;5080590;28;20120;-80
2021/07/29 03:13:16;;;;;;;1.50;1.40;;;;;;;;;;5083178;28;20025;-80
2021/07/29 03:15:42;;;;;;;1.58;1.48;;;;;;;;;;5081653;28;20043;-80
2021/07/29 03:18:08;;;;;;;1.60;1.50;;;;;;;;;;5096851;28;20103;-80
2021/07/29 03:20:34;;;;;;;2.13;1.52;;;;;;;;;;5101668;28;20239;-78
2021/07/29 03:23:00;;;;;;;1.85;1.75;;;;;;;;;;5100597;28;20346;-78
2021/07/29 03:25:26;;;;;;;1.65;1.55;;;;;;;;;;5099965;28;20088;-79
2021/07/29 03:27:52;;;;;;;1.27;1.17;;;;;;;;;;5093623;28;20477;-79
2021/07/29 03:30:18;;;;;;;3.50;2.03;;;;;;;;;;5091888;28;20024;-79
2021/07/29 03:32:44;;;;;;;1.73;1.63;;;;;;;;;;5100435;28;20035;-79
2021/07/29 03:35:10;;;;;;;2.13;1.60;;;;;;;;;;5099398;28;20048;-78
2021/07/29 03:37:37;;;;;;;1.45;1.38;;;;;;;;;;5092719;28;20489;-78
2021/07/29 03:40:06;;;;;;;1.63;1.52;;;;;;;;;;5083404;28;20131;-78
2021/07/29 03:42:33;;;;;;;1.30;1.25;;;;;;;;;;5078142;28;20388;-78
2021/07/29 03:44:59;;;;;;;1.50;1.40;;;;;;;;;;5081367;28;20384;-78
2021/07/29 03:47:26;;;;;;;1.58;1.48;;;;;;;;;;5100736;28;20095;-78
2021/07/29 03:49:52;;;;;;;1.48;1.38;;;;;;;;;;5100391;28;20077;-78
2021/07/29 03:52:18;;;;;;;1.77;1.67;;;;;;;;;;5101305;28;20030;-79
2021/07/29 03:54:44;;;;;;;1.70;1.60;;;;;;;;;;5084508;28;20061;-79
2021/07/29 03:57:10;;;;;;;1.30;1.20;;;;;;;;;;5093818;28;20030;-78
2021/07/29 03:59:39;;;;;;;1.15;1.05;;;;;;;;;;5087510;28;20092;-78
2021/07/29 04:02:12;;;;;;;1.13;1.13;;;;;;;;;;5084103;28;20029;-79
2021/07/29 04:04:38;;;;;;;1.77;1.40;;;;;;;;;;5080845;28;20035;-79
2021/07/29 04:07:05;;;;;;;3.17;1.30;;;;;;;;;;5080372;28;20032;-79
2021/07/29 04:09:31;;;;;;;1.40;1.30;;;;;;;;;;5078291;28;20377;-78
2021/07/29 04:11:57;;;;;;;1.23;1.17;;;;;;;;;;5098328;28;20028;-78
2021/07/29 04:14:23;;;;;;;1.77;1.30;;;;;;;;;;5100075;28;20039;-78
2021/07/29 04:16:53;;;;;;;2.50;1.95;;;;;;;;;;5080704;28;20380;-78
2021/07/29 04:19:19;;;;;;;1.27;1.17;;;;;;;;;;5078884;28;20059;-79
2021/07/29 04:21:45;;;;;;;1.48;1.38;;;;;;;;;;5080797;28;20335;-78
2021/07/29 04:24:11;;;;;;;1.38;1.27;;;;;;;;;;5091060;28;20032;-78
2021/07/29 04:26:39;;;;;;;1.75;1.63;;;;;;;;;;5091602;28;20031;-78
2021/07/29 04:29:05;;;;;;;1.52;1.42;;;;;;;;;;5085963;28;20021;-78
2021/07/29 04:31:31;;;;;;;2.88;1.40;;;;;;;;;;5086444;28;20099;-78
2021/07/29 04:33:57;;;;;;;2.78;1.20;;;;;;;;;;5095397;28;20036;-79
2021/07/29 04:36:23;;;;;;;2.05;1.60;;;;;;;;;;5096926;28;20104;-78
2021/07/29 04:38:49;;;;;;;2.25;1.30;;;;;;;;;;5087232;28;20035;-78
2021/07/29 04:41:15;;;;;;;1.52;1.42;;;;;;;;;;5075729;28;20028;-77
2021/07/29 04:43:41;;;;;;;1.60;1.42;;;;;;;;;;5099991;28;20076;-81
2021/07/29 04:46:07;;;;;;;4.30;1.73;;;;;;;;;;5096787;28;20024;-79
2021/07/29 04:48:34;;;;;;;1.58;1.45;;;;;;;;;;5082592;28;20039;-78
2021/07/29 04:51:00;;;;;;;1.33;1.33;;;;;;;;;;5078320;28;20029;-78
2021/07/29 04:53:26;;;;;;;1.00;1.00;;;;;;;;;;5083930;28;20020;-78
2021/07/29 04:55:52;;;;;;;2.40;1.67;;;;;;;;;;5090441;28;20019;-78
2021/07/29 04:58:18;;;;;;;1.50;1.40;;;;;;;;;;5096279;28;20019;-78
2021/07/29 05:00:44;;;;;;;1.73;1.30;;;;;;;;;;5098091;28;20071;-78
2021/07/29 05:03:10;;;;;;;1.98;1.50;;;;;;;;;;5087673;28;20040;-78
2021/07/29 05:05:36;;;;;;;1.65;1.55;;;;;;;;;;5076765;28;20028;-78
2021/07/29 05:08:03;;;;;;;1.60;1.50;;;;;;;;;;5074983;28;20284;-78
2021/07/29 05:10:29;;;;;;;1.40;1.30;;;;;;;;;;5088073;28;20040;-78
2021/07/29 05:12:55;;;;;;;1.63;1.38;;;;;;;;;;5077463;28;20636;-77
2021/07/29 05:15:21;;;;;;;1.63;1.52;;;;;;;;;;5077048;28;20104;-78
2021/07/29 05:17:54;;;;;;;1.23;1.13;;;;;;;;;;5089169;28;20126;-78
2021/07/29 05:20:24;;;;;;;1.60;1.50;;;;;;;;;;5096326;28;20032;-78
2021/07/29 05:22:50;;;;;;;1.40;1.30;;;;;;;;;;5091364;28;20028;-78
2021/07/29 05:25:22;;;;;;;1.42;1.33;;;;;;;;;;5103165;28;20043;-79
2021/07/29 05:27:49;;;;;;;1.63;1.33;;;;;;;;;;5093199;28;20065;-79
2021/07/29 05:30:15;;;;;;;1.63;1.52;;;;;;;;;;5078438;28;20059;-78
2021/07/29 05:32:42;;;;;;;1.90;1.70;;;;;;;;;;5075723;28;20035;-78
2021/07/29 05:35:09;;;;;;;4.75;1.30;;;;;;;;;;5084671;28;20504;-79
2021/07/29 05:37:36;;;;;;;1.25;1.13;;;;;;;;;;5077672;28;20115;-81
2021/07/29 05:40:02;;;;;;;1.40;1.30;;;;;;;;;;5088896;28;20031;-80
2021/07/29 05:42:29;;;;;;;1.40;1.30;;;;;;;;;;5079854;28;20025;-80
2021/07/29 05:44:55;;;;;;;1.42;1.33;;;;;;;;;;5084163;28;20050;-80
2021/07/29 05:47:22;;;;;;;1.92;1.20;;;;;;;;;;5098103;28;20263;-80
2021/07/29 05:49:48;;;;;;;1.45;1.30;;;;;;;;;;5102383;28;20129;-80
2021/07/29 05:52:14;;;;;;;0.95;0.95;;;;;;;;;;5108509;28;20039;-80
2021/07/29 05:54:40;;;;;;;1.25;1.15;;;;;;;;;;5100078;28;20023;-79
2021/07/29 05:57:06;;;;;;;2.63;1.50;;;;;;;;;;5101001;28;20043;-80
2021/07/29 05:59:32;;;;;;;1.13;1.02;;;;;;;;;;5114386;28;20267;-79
2021/07/29 06:01:58;;;;;;;1.73;1.50;;;;;;;;;;5115664;28;20036;-79
2021/07/29 06:04:24;;;;;;;1.50;1.40;;;;;;;;;;5115266;28;20054;-80
2021/07/29 06:06:50;;;;;;;1.40;1.30;;;;;;;;;;5105575;28;20051;-80
2021/07/29 06:09:16;;;;;;;1.35;1.25;;;;;;;;;;5113124;28;20038;-80
2021/07/29 06:11:42;;;;;;;1.50;1.40;;;;;;;;;;5097760;28;20047;-80
2021/07/29 06:14:08;;;;;;;1.40;1.30;;;;;;;;;;5095184;28;20013;-80
2021/07/29 06:16:34;;;;;;;2.25;1.50;;;;;;;;;;5095200;28;20098;-79
2021/07/29 06:19:09;;;;;;;2.35;1.90;;;;;;;;;;5095335;28;20033;-80
2021/07/29 06:21:36;;;;;;;1.52;1.33;;;;;;;;;;5085158;28;20032;-80
2021/07/29 06:24:02;;;;;;;1.67;1.58;;;;;;;;;;5092654;28;20028;-79
2021/07/29 06:26:28;;;;;;;1.80;1.70;;;;;;;;;;5096917;28;20024;-79
2021/07/29 06:28:55;;;;;;;1.60;1.50;;;;;;;;;;5096394;28;20534;-79
2021/07/29 06:31:21;;;;;;;4.13;1.80;;;;;;;;;;5091734;28;20037;-79
2021/07/29 06:33:47;;;;;;;1.83;1.70;;;;;;;;;;5096248;28;20028;-80
2021/07/29 06:36:13;;;;;;;1.65;1.55;;;;;;;;;;5085983;28;20040;-81
2021/07/29 06:38:39;;;;;;;1.92;1.70;;;;;;;;;;5083643;28;20025;-79
2021/07/29 06:41:06;;;;;;;3.35;1.40;;;;;;;;;;5098118;28;20154;-82
2021/07/29 06:43:32;;;;;;;3.25;1.60;;;;;;;;;;5102550;28;20024;-80
2021/07/29 06:46:08;;;;;;;2.03;1.92;;;;;;;;;;5101264;28;20028;-82
2021/07/29 06:48:35;;;;;;;3.13;2.00;;;;;;;;;;5100094;28;20028;-82
2021/07/29 06:51:05;;;;;;;1.90;1.67;;;;;;;;;;5102848;28;20115;-81
2021/07/29 06:53:31;;;;;;;2.80;1.58;;;;;;;;;;5103662;28;20034;-81
2021/07/29 06:55:59;;;;;;;1.73;1.63;;;;;;;;;;5098679;28;20020;-80
2021/07/29 06:58:25;;;;;;;2.00;1.90;;;;;;;;;;5099341;28;20035;-81
2021/07/29 07:00:54;;;;;;;1.90;1.80;;;;;;;;;;5085417;28;20021;-82
2021/07/29 07:03:23;;;;;;;1.58;1.48;;;;;;;;;;5087352;28;20385;-81
2021/07/29 07:05:49;;;;;;;2.80;1.73;;;;;;;;;;5102788;28;20032;-80
2021/07/29 07:08:15;;;;;;;2.35;1.80;;;;;;;;;;5089725;28;20059;-81
2021/07/29 07:10:42;;;;;;;2.25;2.15;;;;;;;;;;5102386;28;20028;-81
2021/07/29 07:13:08;;;;;;;2.92;1.60;;;;;;;;;;5104644;28;20251;-82
2021/07/29 07:15:34;;;;;;;2.05;1.90;;;;;;;;;;5101881;28;20021;-82
2021/07/29 07:18:03;;;;;;;6.13;2.47;;;;;;;;;;5087571;28;20059;-82
2021/07/29 07:20:29;;;;;;;3.10;2.80;;;;;;;;;;5108439;28;20028;-81
2021/07/29 07:22:55;;;;;;;2.67;2.47;;;;;;;;;;5087686;28;20032;-83
2021/07/29 07:25:21;;;;;;;2.58;2.38;;;;;;;;;;5089790;28;20008;-82
2021/07/29 07:27:47;;;;;;;2.40;2.20;;;;;;;;;;5102381;28;20108;-80
2021/07/29 07:30:13;;;;;;;3.25;2.53;;;;;;;;;;5097966;28;20077;-82
2021/07/29 07:32:39;;;;;;;2.60;2.40;;;;;;;;;;5107004;28;20024;-82
2021/07/29 07:35:05;;;;;;;6.25;2.38;;;;;;;;;;5087434;28;20033;-83
2021/07/29 07:37:31;;;;;;;2.42;2.33;;;;;;;;;;5082823;28;20103;-82
2021/07/29 07:39:57;;;;;;;3.05;2.58;;;;;;;;;;5088408;28;20025;-82
2021/07/29 07:42:24;;;;;;;2.90;2.50;;;;;;;;;;5103496;28;20039;-80
2021/07/29 07:44:59;;;;;;;2.95;2.58;;;;;;;;;;5104248;28;20024;-82
2021/07/29 07:47:27;;;;;;;3.15;2.55;;;;;;;;;;5108179;28;20032;-80
2021/07/29 07:49:53;;;;;;;3.83;2.10;;;;;;;;;;5091722;28;20088;-82
2021/07/29 07:52:19;;;;;;;2.70;2.50;;;;;;;;;;5100885;28;20036;-81
2021/07/29 07:54:45;;;;;;;3.42;2.00;;;;;;;;;;5095606;28;20092;-81
2021/07/29 07:57:11;;;;;;;2.33;2.13;;;;;;;;;;5088944;28;20082;-81
2021/07/29 07:59:38;;;;;;;4.82;2.60;;;;;;;;;;5086990;28;20090;-82
2021/07/29 08:02:07;;;;;;;3.63;2.38;;;;;;;;;;5083206;28;20039;-81
2021/07/29 08:04:34;;;;;;;2.97;2.30;;;;;;;;;;5095327;28;20497;-80
2021/07/29 08:07:00;;;;;;;3.90;2.90;;;;;;;;;;5091572;28;20116;-82
2021/07/29 08:09:26;;;;;;;3.13;2.65;;;;;;;;;;5096523;28;20033;-82
2021/07/29 08:11:53;;;;;;;2.35;2.15;;;;;;;;;;5093707;28;20552;-82
2021/07/29 08:14:19;;;;;;;2.88;2.60;;;;;;;;;;5092945;28;20029;-82
2021/07/29 08:16:45;;;;;;;2.88;2.60;;;;;;;;;;5091727;28;20112;-81
2021/07/29 08:19:11;;;;;;;3.80;2.97;;;;;;;;;;5080775;28;20107;-82
2021/07/29 08:21:37;;;;;;;4.00;2.25;;;;;;;;;;5080834;28;20033;-82
2021/07/29 08:24:03;;;;;;;3.40;2.63;;;;;;;;;;5082725;28;20027;-81
2021/07/29 08:26:30;;;;;;;2.85;2.40;;;;;;;;;;5085492;28;20122;-82
2021/07/29 08:28:57;;;;;;;3.25;2.55;;;;;;;;;;5099286;28;20020;-82
2021/07/29 08:31:23;;;;;;;3.38;2.33;;;;;;;;;;5103372;28;20028;-81
2021/07/29 08:33:49;;;;;;;2.45;2.17;;;;;;;;;;5103973;28;20395;-82
2021/07/29 08:36:17;;;;;;;2.47;2.28;;;;;;;;;;5102807;28;20035;-82
2021/07/29 08:38:43;;;;;;;2.92;2.58;;;;;;;;;;5103107;28;20482;-80
2021/07/29 08:41:09;;;;;;;3.85;2.47;;;;;;;;;;5104682;28;20039;-83
2021/07/29 08:43:36;;;;;;;2.67;2.30;;;;;;;;;;5104874;28;20104;-78
2021/07/29 08:46:07;;;;;;;3.75;2.92;;;;;;;;;;5098790;28;20024;-80
2021/07/29 08:48:33;;;;;;;3.20;2.90;;;;;;;;;;5095680;28;20478;-79
2021/07/29 08:51:00;;;;;;;2.97;2.53;;;;;;;;;;5082851;28;20040;-81
2021/07/29 08:53:26;;;;;;;2.55;2.30;;;;;;;;;;5083581;28;20050;-80
2021/07/29 08:55:53;;;;;;;3.20;2.90;;;;;;;;;;5082520;28;20035;-79
2021/07/29 08:58:19;;;;;;;2.95;2.58;;;;;;;;;;5099904;28;20020;-79
2021/07/29 09:01:00;;;;;;;4.18;2.85;;;;;;;;;;5100356;28;20031;-79
2021/07/29 09:03:27;;;;;;;2.70;2.50;;;;;;;;;;5097583;28;20059;-80
2021/07/29 09:06:05;;;;;;;4.63;2.72;;;;;;;;;;5097518;28;20168;-81
2021/07/29 09:08:45;;;;;;;3.60;3.00;;;;;;;;;;5102802;28;20023;-79
2021/07/29 09:11:30;;;;;;;3.90;3.05;;;;;;;;;;5092610;28;20041;-79
2021/07/29 09:14:03;;;;;;;3.40;2.90;;;;;;;;;;5092692;28;20131;-77
2021/07/29 09:16:33;;;;;;;3.40;3.10;;;;;;;;;;5102894;28;20077;-78
2021/07/29 09:19:00;;;;;;;3.38;3.08;;;;;;;;;;5096047;28;20481;-80
2021/07/29 09:21:26;;;;;;;3.72;2.95;;;;;;;;;;5081239;28;20036;-80
2021/07/29 09:24:05;;;;;;;3.38;3.08;;;;;;;;;;5080543;28;20513;-81
2021/07/29 09:26:50;;;;;;;3.55;3.00;;;;;;;;;;5086427;28;20020;-79
2021/07/29 09:29:23;;;;;;;3.03;2.75;;;;;;;;;;5091443;28;20017;-82
2021/07/29 09:31:51;;;;;;;3.78;3.22;;;;;;;;;;5079411;28;20028;-82
2021/07/29 09:34:17;;;;;;;3.40;2.83;;;;;;;;;;5080047;28;20418;-79
2021/07/29 09:36:43;;;;;;;3.45;3.15;;;;;;;;;;5080191;28;20159;-79
2021/07/29 09:39:23;;;;;;;4.30;3.10;;;;;;;;;;5080478;28;20032;-81
2021/07/29 09:41:58;;;;;;;4.25;3.10;;;;;;;;;;5079808;28;20163;-81
2021/07/29 09:44:40;;;;;;;3.33;3.13;;;;;;;;;;5081429;28;20111;-81
2021/07/29 09:47:06;;;;;;;4.38;3.03;;;;;;;;;;5083906;28;20032;-80
2021/07/29 09:49:33;;;;;;;3.20;3.00;;;;;;;;;;5086544;28;20016;-80
2021/07/29 09:52:00;;;;;;;4.43;3.05;;;;;;;;;;5084908;28;20039;-81
2021/07/29 09:54:27;;;;;;;5.90;3.55;;;;;;;;;;5094145;28;20039;-81
2021/07/29 09:56:53;;;;;;;4.40;2.90;;;;;;;;;;5095653;28;20020;-82
2021/07/29 09:59:19;;;;;;;3.60;3.30;;;;;;;;;;5079556;28;20043;-81
2021/07/29 10:01:45;;;;;;;3.40;3.05;;;;;;;;;;5100213;28;20081;-81
2021/07/29 10:04:12;;;;;;;3.90;3.13;;;;;;;;;;5100486;28;20024;-80
2021/07/29 10:06:38;;;;;;;3.60;3.30;;;;;;;;;;5099711;28;20020;-82
2021/07/29 10:09:07;;;;;;;3.95;3.63;;;;;;;;;;5088061;28;20028;-78
2021/07/29 10:11:35;;;;;;;4.70;3.30;;;;;;;;;;5080687;28;20029;-83
2021/07/29 10:14:01;;;;;;;4.65;4.05;;;;;;;;;;5081429;28;20047;-83
2021/07/29 10:16:50;;;;;;;4.40;3.30;;;;;;;;;;5086986;28;20028;-81
2021/07/29 10:19:17;;;;;;;3.72;3.30;;;;;;;;;;5082741;28;20250;-81
2021/07/29 10:21:44;;;;;;;2.97;2.78;;;;;;;;;;5080131;28;20024;-81
2021/07/29 10:24:11;;;;;;;3.53;3.15;;;;;;;;;;5070861;28;20021;-80
2021/07/29 10:26:56;;;;;;;3.25;3.05;;;;;;;;;;5083229;28;20012;-81
2021/07/29 10:29:27;;;;;;;3.53;3.22;;;;;;;;;;5087862;28;20020;-81
2021/07/29 10:31:57;;;;;;;3.75;3.45;;;;;;;;;;5081957;28;20024;-80
2021/07/29 10:34:25;;;;;;;5.05;3.63;;;;;;;;;;5079249;28;20056;-80
2021/07/29 10:36:51;;;;;;;4.05;3.72;;;;;;;;;;5079342;28;20016;-78
2021/07/29 10:39:17;;;;;;;4.80;3.58;;;;;;;;;;5082692;28;20052;-80
2021/07/29 10:41:43;;;;;;;3.78;3.47;;;;;;;;;;5097610;28;20024;-78
2021/07/29 10:44:10;;;;;;;5.15;4.53;;;;;;;;;;5104341;28;20032;-80
2021/07/29 10:46:55;;;;;;;3.97;3.60;;;;;;;;;;5105824;28;20093;-81
2021/07/29 10:49:21;;;;;;;3.83;3.42;;;;;;;;;;5097646;28;20016;-81
2021/07/29 10:52:22;;;;;;;4.28;3.70;;;;;;;;;;5108513;28;20015;-79
2021/07/29 10:54:48;;;;;;;3.35;3.05;;;;;;;;;;5047924;28;20510;-80
2021/07/29 10:57:15;;;;;;;5.13;4.13;;;;;;;;;;5082746;28;20044;-80
2021/07/29 10:59:41;;;;;;;4.40;3.95;;;;;;;;;;5083336;28;20168;-79
2021/07/29 11:02:18;;;;;;;5.43;3.97;;;;;;;;;;5092202;28;20028;-82
2021/07/29 11:04:54;;;;;;;3.67;3.38;;;;;;;;;;5093352;28;20088;-84
2021/07/29 11:07:21;;;;;;;5.47;4.20;;;;;;;;;;5093820;28;20031;-81
2021/07/29 11:09:47;;;;;;;4.32;3.95;;;;;;;;;;5083848;28;20508;-82
2021/07/29 11:12:15;;;;;;;4.38;4.05;;;;;;;;;;5093679;28;20032;-81
2021/07/29 11:14:41;;;;;;;4.32;3.92;;;;;;;;;;5101972;28;20027;-81
2021/07/29 11:17:07;;;;;;;3.97;3.60;;;;;;;;;;5088801;28;20519;-79
2021/07/29 11:19:43;;;;;;;3.35;3.08;;;;;;;;;;5084750;28;20016;-82
2021/07/29 11:22:10;;;;;;;3.92;3.42;;;;;;;;;;5102762;28;20054;-81
2021/07/29 11:24:36;;;;;;;3.67;3.38;;;;;;;;;;5099251;28;20028;-80
2021/07/29 11:27:06;;;;;;;4.95;4.30;;;;;;;;;;5094040;28;20020;-82
2021/07/29 11:29:32;;;;;;;3.45;3.17;;;;;;;;;;5096208;28;20016;-80
2021/07/29 11:31:58;;;;;;;3.88;3.53;;;;;;;;;;5104787;28;20024;-80
2021/07/29 11:34:29;;;;;;;5.18;3.80;;;;;;;;;;5101135;28;20036;-77
2021/07/29 11:36:55;;;;;;;3.42;3.13;;;;;;;;;;5086129;28;20027;-81
2021/07/29 11:39:21;;;;;;;4.53;3.60;;;;;;;;;;5081820;28;20028;-81
2021/07/29 11:41:56;;;;;;;3.70;3.40;;;;;;;;;;5092861;28;20028;-82
2021/07/29 11:44:22;;;;;;;4.35;3.95;;;;;;;;;;5081302;28;20044;-80
2021/07/29 11:46:58;;;;;;;3.58;3.28;;;;;;;;;;5092675;28;20032;-80
2021/07/29 11:49:25;;;;;;;3.42;3.15;;;;;;;;;;5097045;28;20017;-81
2021/07/29 11:52:08;;;;;;;9.38;4.10;;;;;;;;;;5081953;28;20024;-80
2021/07/29 11:54:34;;;;;;;4.47;3.35;;;;;;;;;;5084664;28;20116;-81
2021/07/29 11:57:01;;;;;;;4.43;3.70;;;;;;;;;;5082088;28;20028;-81
2021/07/29 11:59:33;;;;;;;4.10;3.70;;;;;;;;;;5081115;28;20104;-80
2021/07/29 12:02:00;;;;;;;3.90;3.60;;;;;;;;;;5083558;28;20080;-82
2021/07/29 12:04:27;;;;;;;3.72;3.40;;;;;;;;;;5084941;28;20134;-82
2021/07/29 12:06:57;;;;;;;7.63;3.72;;;;;;;;;;5084750;28;20031;-81
2021/07/29 12:09:23;;;;;;;4.32;3.92;;;;;;;;;;5092717;28;20029;-78
2021/07/29 12:11:51;;;;;;;5.00;3.70;;;;;;;;;;5105844;28;20035;-80
2021/07/29 12:14:18;;;;;;;3.53;3.22;;;;;;;;;;5099719;28;20067;-77
2021/07/29 12:16:45;;;;;;;4.22;3.83;;;;;;;;;;5098344;28;20498;-77
2021/07/29 12:19:11;;;;;;;3.72;3.53;;;;;;;;;;5083964;28;20177;-80
2021/07/29 12:21:37;;;;;;;3.33;3.13;;;;;;;;;;5081210;28;20028;-80
2021/07/29 12:24:03;;;;;;;3.90;3.58;;;;;;;;;;5090458;28;20020;-79
2021/07/29 12:26:29;;;;;;;4.60;3.83;;;;;;;;;;5092603;28;20377;-80
2021/07/29 12:28:56;;;;;;;3.28;3.03;;;;;;;;;;5090821;28;20090;-81
2021/07/29 12:31:26;;;;;;;3.95;3.55;;;;;;;;;;5080862;28;20414;-78
2021/07/29 12:33:53;;;;;;;3.78;3.47;;;;;;;;;;5088828;28;20038;-79
2021/07/29 12:36:20;;;;;;;3.88;3.35;;;;;;;;;;5098967;28;20103;-77
2021/07/29 12:38:48;;;;;;;3.70;3.40;;;;;;;;;;5099139;28;20024;-78
2021/07/29 12:41:28;;;;;;;4.03;3.72;;;;;;;;;;5092488;28;20017;-79
2021/07/29 12:44:05;;;;;;;3.42;3.13;;;;;;;;;;5079378;28;20048;-81
2021/07/29 12:46:31;;;;;;;3.65;3.40;;;;;;;;;;5089118;28;20123;-80
2021/07/29 12:48:58;;;;;;;3.70;3.40;;;;;;;;;;5079193;28;20029;-79
2021/07/29 12:51:34;;;;;;;3.88;3.58;;;;;;;;;;5099152;28;20024;-81
2021/07/29 12:54:00;;;;;;;3.75;3.40;;;;;;;;;;5098874;28;20051;-79
2021/07/29 12:56:26;;;;;;;3.33;3.13;;;;;;;;;;5094872;28;20028;-77
2021/07/29 12:58:53;;;;;;;4.53;3.45;;;;;;;;;;5082710;28;20020;-77
2021/07/29 13:01:19;;;;;;;3.53;3.22;;;;;;;;;;5083085;28;20412;-77
2021/07/29 13:03:45;;;;;;;4.03;3.70;;;;;;;;;;5092161;28;20096;-78
2021/07/29 13:06:11;;;;;;;3.83;3.53;;;;;;;;;;5103554;28;20074;-80
2021/07/29 13:08:37;;;;;;;5.13;3.42;;;;;;;;;;5098228;28;20068;-79
2021/07/29 13:11:05;;;;;;;4.07;3.60;;;;;;;;;;5097993;28;20077;-80
2021/07/29 13:13:33;;;;;;;3.90;3.35;;;;;;;;;;5091702;28;20080;-77
2021/07/29 13:15:59;;;;;;;4.95;3.50;;;;;;;;;;5085196;28;20088;-77
2021/07/29 13:18:25;;;;;;;4.10;3.13;;;;;;;;;;5077378;28;20032;-79
2021/07/29 13:20:52;;;;;;;3.80;3.50;;;;;;;;;;5093001;28;20459;-79
2021/07/29 13:23:18;;;;;;;3.67;3.13;;;;;;;;;;5096298;28;20035;-80
2021/07/29 13:25:45;;;;;;;3.42;3.10;;;;;;;;;;5095600;28;20028;-80
2021/07/29 13:28:12;;;;;;;3.88;3.47;;;;;;;;;;5086930;28;20418;-77
2021/07/29 13:30:38;;;;;;;3.70;3.40;;;;;;;;;;5085139;28;20027;-81
2021/07/29 13:33:04;;;;;;;3.55;3.25;;;;;;;;;;5089196;28;20147;-80
2021/07/29 13:35:30;;;;;;;3.80;3.45;;;;;;;;;;5099073;28;20028;-80
2021/07/29 13:37:58;;;;;;;5.55;3.55;;;;;;;;;;5086206;28;20044;-81
2021/07/29 13:40:25;;;;;;;4.63;3.55;;;;;;;;;;5089375;28;20024;-79
2021/07/29 13:42:52;;;;;;;3.95;3.63;;;;;;;;;;5093615;28;20028;-80
2021/07/29 13:45:21;;;;;;;3.95;3.47;;;;;;;;;;5100448;28;20024;-77
2021/07/29 13:47:48;;;;;;;4.10;3.80;;;;;;;;;;5084592;28;20016;-80
2021/07/29 13:50:15;;;;;;;3.50;3.20;;;;;;;;;;5081532;28;20024;-81
2021/07/29 13:52:41;;;;;;;3.45;3.15;;;;;;;;;;5083427;28;20461;-80
2021/07/29 13:55:08;;;;;;;3.20;2.90;;;;;;;;;;5106397;28;20042;-80
2021/07/29 13:57:34;;;;;;;3.53;3.10;;;;;;;;;;5095167;28;20020;-81
2021/07/29 14:00:00;;;;;;;3.70;3.40;;;;;;;;;;5079568;28;20028;-78
2021/07/29 14:02:28;;;;;;;3.33;3.03;;;;;;;;;;5080456;28;20036;-78
2021/07/29 14:04:54;;;;;;;3.45;3.25;;;;;;;;;;5086224;28;20040;-79
2021/07/29 14:07:20;;;;;;;3.80;3.50;;;;;;;;;;5079930;28;20027;-79
2021/07/29 14:09:46;;;;;;;3.35;3.03;;;;;;;;;;5086238;28;20059;-78
2021/07/29 14:12:13;;;;;;;3.55;3.30;;;;;;;;;;5087399;28;20255;-81
2021/07/29 14:14:40;;;;;;;3.58;3.28;;;;;;;;;;5097831;28;20020;-81
2021/07/29 14:17:52;;;;;;;3.03;2.83;;;;;;;;;;5098014;28;20036;-81
2021/07/29 14:25:09;;;;;;;4.10;3.72;;;;;;;;;;5102683;28;20027;-81
2021/07/29 14:27:36;;;;;;;3.53;3.30;;;;;;;;;;5095211;28;20065;-80
2021/07/29 14:30:03;;;;;;;3.63;3.33;;;;;;;;;;5103218;28;20099;-80
2021/07/29 14:32:29;;;;;;;3.72;3.42;;;;;;;;;;5103965;28;20162;-78
2021/07/29 14:34:55;;;;;;;3.40;3.20;;;;;;;;;;5087970;28;20056;-79
2021/07/29 14:37:21;;;;;;;3.50;3.20;;;;;;;;;;5085175;28;20032;-79
2021/07/29 14:39:47;;;;;;;3.20;2.95;;;;;;;;;;5081629;28;20025;-81
2021/07/29 14:42:13;;;;;;;3.92;3.63;;;;;;;;;;5099971;28;20043;-80
2021/07/29 14:44:48;;;;;;;3.22;3.03;;;;;;;;;;5101200;28;20031;-80
2021/07/29 14:49:59;;;;;;;3.45;3.20;;;;;;;;;;5102595;28;20077;-81
2021/07/29 14:52:27;;;;;;;3.63;3.22;;;;;;;;;;5084408;28;20106;-81
2021/07/29 14:55:01;;;;;;;4.05;3.65;;;;;;;;;;5086277;28;20123;-79